sensor_id;sensor_type;location;lat;lon;timestamp;P1;durP1;ratioP1;P2;durP2;ratioP2
69381;SDS011;56560;50.692;12.844;2022-09-09T00:02:04;8.40;;;3.00;;
69381;SDS011;56560;50.692;12.844;2022-09-09T00:04:41;7.35;;;2.70;;
69381;SDS011;56560;50.692;12.844;2022-09-09T00:09:57;8.65;;;3.05;;
69381;SDS011;56560;50.692;12.844;2022-09-09T00:18:31;8.57;;;2.80;;
69381;SDS011;56560;50.692;12.844;2022-09-09T00:21:04;14.45;;;2.90;;
69381;SDS011;56560;50.692;12.844;2022-09-09T00:23:34;7.53;;;3.00;;
69381;SDS011;56560;50.692;12.844;2022-09-09T00:31:41;10.40;;;3.15;;
69381;SDS011;56560;50.692;12.844;2022-09-09T00:34:14;7.72;;;2.67;;
69381;SDS011;56560;50.692;12.844;2022-09-09T00:36:43;9.32;;;2.80;;
69381;SDS011;56560;50.692;12.844;2022-09-09T00:39:23;7.90;;;2.77;;
69381;SDS011;56560;50.692;12.844;2022-09-09T00:44:28;9.30;;;2.58;;
69381;SDS011;56560;50.692;12.844;2022-09-09T00:47:18;7.93;;;2.45;;
69381;SDS011;56560;50.692;12.844;2022-09-09T00:55:19;8.60;;;2.60;;
69381;SDS011;56560;50.692;12.844;2022-09-09T00:57:53;8.35;;;2.60;;
69381;SDS011;56560;50.692;12.844;2022-09-09T01:00:20;8.18;;;2.70;;
69381;SDS011;56560;50.692;12.844;2022-09-09T01:05:39;8.07;;;2.80;;
69381;SDS011;56560;50.692;12.844;2022-09-09T01:10:56;11.60;;;2.75;;
69381;SDS011;56560;50.692;12.844;2022-09-09T01:13:24;7.22;;;2.38;;
69381;SDS011;56560;50.692;12.844;2022-09-09T01:15:52;6.78;;;2.28;;
69381;SDS011;56560;50.692;12.844;2022-09-09T01:18:22;6.33;;;2.30;;
69381;SDS011;56560;50.692;12.844;2022-09-09T01:26:44;8.75;;;2.30;;
69381;SDS011;56560;50.692;12.844;2022-09-09T01:29:12;9.45;;;2.30;;
69381;SDS011;56560;50.692;12.844;2022-09-09T01:31:54;9.00;;;2.37;;
69381;SDS011;56560;50.692;12.844;2022-09-09T01:34:22;9.55;;;2.35;;
69381;SDS011;56560;50.692;12.844;2022-09-09T01:36:57;6.43;;;2.08;;
69381;SDS011;56560;50.692;12.844;2022-09-09T01:39:33;7.32;;;2.05;;
69381;SDS011;56560;50.692;12.844;2022-09-09T01:42:01;7.30;;;2.30;;
69381;SDS011;56560;50.692;12.844;2022-09-09T01:44:27;13.27;;;2.60;;
69381;SDS011;56560;50.692;12.844;2022-09-09T01:46:54;7.68;;;2.30;;
69381;SDS011;56560;50.692;12.844;2022-09-09T01:49:20;10.77;;;2.65;;
69381;SDS011;56560;50.692;12.844;2022-09-09T01:51:46;9.97;;;2.43;;
69381;SDS011;56560;50.692;12.844;2022-09-09T01:54:19;6.50;;;2.20;;
69381;SDS011;56560;50.692;12.844;2022-09-09T02:02:13;5.57;;;2.20;;
69381;SDS011;56560;50.692;12.844;2022-09-09T02:04:44;6.57;;;2.10;;
69381;SDS011;56560;50.692;12.844;2022-09-09T02:09:47;5.40;;;1.92;;
69381;SDS011;56560;50.692;12.844;2022-09-09T02:12:20;6.03;;;2.20;;
69381;SDS011;56560;50.692;12.844;2022-09-09T02:14:51;7.35;;;2.10;;
69381;SDS011;56560;50.692;12.844;2022-09-09T02:17:24;4.65;;;1.95;;
69381;SDS011;56560;50.692;12.844;2022-09-09T02:20:14;6.30;;;2.20;;
69381;SDS011;56560;50.692;12.844;2022-09-09T02:22:40;4.90;;;1.83;;
69381;SDS011;56560;50.692;12.844;2022-09-09T02:25:10;7.05;;;2.05;;
69381;SDS011;56560;50.692;12.844;2022-09-09T02:27:40;7.75;;;2.00;;
69381;SDS011;56560;50.692;12.844;2022-09-09T02:30:08;6.47;;;1.90;;
69381;SDS011;56560;50.692;12.844;2022-09-09T02:32:35;6.10;;;2.00;;
69381;SDS011;56560;50.692;12.844;2022-09-09T02:35:03;7.13;;;2.10;;
69381;SDS011;56560;50.692;12.844;2022-09-09T02:37:37;7.05;;;2.13;;
69381;SDS011;56560;50.692;12.844;2022-09-09T02:40:08;8.18;;;2.13;;
69381;SDS011;56560;50.692;12.844;2022-09-09T02:42:39;6.70;;;2.20;;
69381;SDS011;56560;50.692;12.844;2022-09-09T02:45:06;6.47;;;2.13;;
69381;SDS011;56560;50.692;12.844;2022-09-09T02:47:41;9.02;;;2.10;;
69381;SDS011;56560;50.692;12.844;2022-09-09T02:50:22;9.30;;;2.17;;
69381;SDS011;56560;50.692;12.844;2022-09-09T02:56:33;6.97;;;2.10;;
69381;SDS011;56560;50.692;12.844;2022-09-09T02:58:32;7.00;;;2.05;;
69381;SDS011;56560;50.692;12.844;2022-09-09T03:00:58;5.88;;;2.20;;
69381;SDS011;56560;50.692;12.844;2022-09-09T03:03:26;7.90;;;2.35;;
69381;SDS011;56560;50.692;12.844;2022-09-09T03:05:52;8.13;;;2.13;;
69381;SDS011;56560;50.692;12.844;2022-09-09T03:08:17;9.25;;;2.10;;
69381;SDS011;56560;50.692;12.844;2022-09-09T03:10:43;6.23;;;2.20;;
69381;SDS011;56560;50.692;12.844;2022-09-09T03:13:09;5.97;;;2.13;;
69381;SDS011;56560;50.692;12.844;2022-09-09T03:15:37;7.32;;;2.00;;
69381;SDS011;56560;50.692;12.844;2022-09-09T03:18:03;8.37;;;2.10;;
69381;SDS011;56560;50.692;12.844;2022-09-09T03:20:29;6.20;;;2.10;;
69381;SDS011;56560;50.692;12.844;2022-09-09T03:22:55;7.32;;;2.08;;
69381;SDS011;56560;50.692;12.844;2022-09-09T03:25:22;7.40;;;2.40;;
69381;SDS011;56560;50.692;12.844;2022-09-09T03:27:51;8.82;;;2.20;;
69381;SDS011;56560;50.692;12.844;2022-09-09T03:30:23;8.68;;;2.40;;
69381;SDS011;56560;50.692;12.844;2022-09-09T03:32:50;8.35;;;2.35;;
69381;SDS011;56560;50.692;12.844;2022-09-09T03:35:16;6.97;;;2.35;;
69381;SDS011;56560;50.692;12.844;2022-09-09T03:37:42;7.53;;;2.15;;
69381;SDS011;56560;50.692;12.844;2022-09-09T03:40:08;8.93;;;2.40;;
69381;SDS011;56560;50.692;12.844;2022-09-09T03:42:37;6.80;;;2.50;;
69381;SDS011;56560;50.692;12.844;2022-09-09T03:45:04;7.68;;;2.40;;
69381;SDS011;56560;50.692;12.844;2022-09-09T03:47:32;9.38;;;2.40;;
69381;SDS011;56560;50.692;12.844;2022-09-09T03:49:58;8.10;;;2.35;;
69381;SDS011;56560;50.692;12.844;2022-09-09T03:52:23;7.03;;;2.10;;
69381;SDS011;56560;50.692;12.844;2022-09-09T03:54:51;6.68;;;2.03;;
69381;SDS011;56560;50.692;12.844;2022-09-09T03:57:17;8.30;;;2.40;;
69381;SDS011;56560;50.692;12.844;2022-09-09T03:59:43;6.97;;;1.98;;
69381;SDS011;56560;50.692;12.844;2022-09-09T04:02:09;6.23;;;2.00;;
69381;SDS011;56560;50.692;12.844;2022-09-09T04:04:35;6.28;;;2.10;;
69381;SDS011;56560;50.692;12.844;2022-09-09T04:07:00;6.13;;;2.13;;
69381;SDS011;56560;50.692;12.844;2022-09-09T04:09:26;6.82;;;2.10;;
69381;SDS011;56560;50.692;12.844;2022-09-09T04:11:52;6.83;;;2.47;;
69381;SDS011;56560;50.692;12.844;2022-09-09T04:14:18;14.07;;;2.70;;
69381;SDS011;56560;50.692;12.844;2022-09-09T04:16:44;6.38;;;2.05;;
69381;SDS011;56560;50.692;12.844;2022-09-09T04:19:11;7.90;;;1.83;;
69381;SDS011;56560;50.692;12.844;2022-09-09T04:21:39;5.55;;;2.00;;
69381;SDS011;56560;50.692;12.844;2022-09-09T04:24:06;6.05;;;1.95;;
69381;SDS011;56560;50.692;12.844;2022-09-09T04:26:33;6.47;;;2.10;;
69381;SDS011;56560;50.692;12.844;2022-09-09T04:29:00;7.10;;;2.07;;
69381;SDS011;56560;50.692;12.844;2022-09-09T04:31:25;7.30;;;2.10;;
69381;SDS011;56560;50.692;12.844;2022-09-09T04:33:51;6.07;;;2.10;;
69381;SDS011;56560;50.692;12.844;2022-09-09T04:36:17;10.15;;;2.03;;
69381;SDS011;56560;50.692;12.844;2022-09-09T04:38:44;8.48;;;2.15;;
69381;SDS011;56560;50.692;12.844;2022-09-09T04:41:13;6.57;;;2.00;;
69381;SDS011;56560;50.692;12.844;2022-09-09T04:43:39;8.57;;;1.90;;
69381;SDS011;56560;50.692;12.844;2022-09-09T04:46:05;5.47;;;2.00;;
69381;SDS011;56560;50.692;12.844;2022-09-09T04:48:31;6.10;;;2.00;;
69381;SDS011;56560;50.692;12.844;2022-09-09T04:50:57;7.60;;;2.30;;
69381;SDS011;56560;50.692;12.844;2022-09-09T04:53:24;7.07;;;2.10;;
69381;SDS011;56560;50.692;12.844;2022-09-09T04:55:50;7.22;;;1.90;;
69381;SDS011;56560;50.692;12.844;2022-09-09T04:58:36;6.05;;;1.90;;
69381;SDS011;56560;50.692;12.844;2022-09-09T05:01:04;5.77;;;2.00;;
69381;SDS011;56560;50.692;12.844;2022-09-09T05:03:30;9.30;;;2.10;;
69381;SDS011;56560;50.692;12.844;2022-09-09T05:06:03;6.85;;;2.00;;
69381;SDS011;56560;50.692;12.844;2022-09-09T05:08:29;6.40;;;2.10;;
69381;SDS011;56560;50.692;12.844;2022-09-09T05:10:54;6.57;;;2.30;;
69381;SDS011;56560;50.692;12.844;2022-09-09T05:13:20;11.68;;;2.33;;
69381;SDS011;56560;50.692;12.844;2022-09-09T05:15:51;8.57;;;2.30;;
69381;SDS011;56560;50.692;12.844;2022-09-09T05:18:18;8.02;;;2.10;;
69381;SDS011;56560;50.692;12.844;2022-09-09T05:20:43;7.32;;;2.10;;
69381;SDS011;56560;50.692;12.844;2022-09-09T05:23:09;6.55;;;1.80;;
69381;SDS011;56560;50.692;12.844;2022-09-09T05:25:37;5.00;;;1.95;;
69381;SDS011;56560;50.692;12.844;2022-09-09T05:28:06;10.67;;;2.37;;
69381;SDS011;56560;50.692;12.844;2022-09-09T05:30:33;5.72;;;2.00;;
69381;SDS011;56560;50.692;12.844;2022-09-09T05:32:59;6.32;;;2.33;;
69381;SDS011;56560;50.692;12.844;2022-09-09T05:35:24;5.10;;;2.10;;
69381;SDS011;56560;50.692;12.844;2022-09-09T05:37:50;5.90;;;2.00;;
69381;SDS011;56560;50.692;12.844;2022-09-09T05:40:16;5.82;;;2.00;;
69381;SDS011;56560;50.692;12.844;2022-09-09T05:42:41;5.53;;;1.83;;
69381;SDS011;56560;50.692;12.844;2022-09-09T05:45:08;5.27;;;2.00;;
69381;SDS011;56560;50.692;12.844;2022-09-09T05:47:34;6.85;;;2.00;;
69381;SDS011;56560;50.692;12.844;2022-09-09T05:50:02;5.88;;;1.85;;
69381;SDS011;56560;50.692;12.844;2022-09-09T05:52:28;5.95;;;1.90;;
69381;SDS011;56560;50.692;12.844;2022-09-09T05:54:54;5.53;;;2.00;;
69381;SDS011;56560;50.692;12.844;2022-09-09T05:57:20;7.05;;;2.00;;
69381;SDS011;56560;50.692;12.844;2022-09-09T05:59:45;7.80;;;1.90;;
69381;SDS011;56560;50.692;12.844;2022-09-09T06:02:11;10.60;;;5.03;;
69381;SDS011;56560;50.692;12.844;2022-09-09T06:04:38;6.82;;;2.15;;
69381;SDS011;56560;50.692;12.844;2022-09-09T06:07:04;7.93;;;2.20;;
69381;SDS011;56560;50.692;12.844;2022-09-09T06:09:30;7.60;;;1.80;;
69381;SDS011;56560;50.692;12.844;2022-09-09T06:11:56;5.45;;;2.17;;
69381;SDS011;56560;50.692;12.844;2022-09-09T06:14:23;7.35;;;2.50;;
69381;SDS011;56560;50.692;12.844;2022-09-09T06:16:50;7.85;;;2.83;;
69381;SDS011;56560;50.692;12.844;2022-09-09T06:19:16;6.57;;;2.70;;
69381;SDS011;56560;50.692;12.844;2022-09-09T06:21:42;8.32;;;2.58;;
69381;SDS011;56560;50.692;12.844;2022-09-09T06:24:09;6.45;;;2.10;;
69381;SDS011;56560;50.692;12.844;2022-09-09T06:26:36;7.63;;;2.30;;
69381;SDS011;56560;50.692;12.844;2022-09-09T06:29:05;7.27;;;2.20;;
69381;SDS011;56560;50.692;12.844;2022-09-09T06:31:33;9.55;;;2.20;;
69381;SDS011;56560;50.692;12.844;2022-09-09T06:34:00;5.38;;;2.15;;
69381;SDS011;56560;50.692;12.844;2022-09-09T06:36:30;9.73;;;3.00;;
69381;SDS011;56560;50.692;12.844;2022-09-09T06:38:57;11.65;;;2.78;;
69381;SDS011;56560;50.692;12.844;2022-09-09T06:41:24;8.77;;;2.40;;
69381;SDS011;56560;50.692;12.844;2022-09-09T06:43:52;4.20;;;1.60;;
69381;SDS011;56560;50.692;12.844;2022-09-09T06:48:44;4.22;;;1.92;;
69381;SDS011;56560;50.692;12.844;2022-09-09T06:51:17;6.43;;;2.20;;
69381;SDS011;56560;50.692;12.844;2022-09-09T06:53:46;8.63;;;2.30;;
69381;SDS011;56560;50.692;12.844;2022-09-09T06:58:41;10.80;;;4.07;;
69381;SDS011;56560;50.692;12.844;2022-09-09T07:01:09;11.13;;;3.25;;
69381;SDS011;56560;50.692;12.844;2022-09-09T07:03:37;12.07;;;4.77;;
69381;SDS011;56560;50.692;12.844;2022-09-09T07:06:04;9.32;;;3.25;;
69381;SDS011;56560;50.692;12.844;2022-09-09T07:08:30;8.52;;;3.45;;
69381;SDS011;56560;50.692;12.844;2022-09-09T07:11:02;11.50;;;3.83;;
69381;SDS011;56560;50.692;12.844;2022-09-09T07:13:38;15.05;;;6.10;;
69381;SDS011;56560;50.692;12.844;2022-09-09T07:16:07;6.93;;;2.80;;
69381;SDS011;56560;50.692;12.844;2022-09-09T07:18:35;9.90;;;3.63;;
69381;SDS011;56560;50.692;12.844;2022-09-09T07:21:01;8.52;;;2.53;;
69381;SDS011;56560;50.692;12.844;2022-09-09T07:23:28;11.97;;;3.33;;
69381;SDS011;56560;50.692;12.844;2022-09-09T07:25:56;7.75;;;2.60;;
69381;SDS011;56560;50.692;12.844;2022-09-09T07:28:23;7.32;;;2.90;;
69381;SDS011;56560;50.692;12.844;2022-09-09T07:30:56;7.43;;;2.85;;
69381;SDS011;56560;50.692;12.844;2022-09-09T07:33:23;7.53;;;2.65;;
69381;SDS011;56560;50.692;12.844;2022-09-09T07:35:50;8.60;;;2.97;;
69381;SDS011;56560;50.692;12.844;2022-09-09T07:38:17;6.75;;;2.80;;
69381;SDS011;56560;50.692;12.844;2022-09-09T07:40:43;6.55;;;2.80;;
69381;SDS011;56560;50.692;12.844;2022-09-09T07:43:09;6.90;;;2.83;;
69381;SDS011;56560;50.692;12.844;2022-09-09T07:45:35;7.43;;;3.10;;
69381;SDS011;56560;50.692;12.844;2022-09-09T07:48:02;7.80;;;3.30;;
69381;SDS011;56560;50.692;12.844;2022-09-09T07:50:28;6.32;;;2.92;;
69381;SDS011;56560;50.692;12.844;2022-09-09T07:52:54;6.38;;;2.80;;
69381;SDS011;56560;50.692;12.844;2022-09-09T07:55:20;8.07;;;2.93;;
69381;SDS011;56560;50.692;12.844;2022-09-09T07:57:47;8.45;;;3.00;;
69381;SDS011;56560;50.692;12.844;2022-09-09T08:00:13;8.77;;;2.90;;
69381;SDS011;56560;50.692;12.844;2022-09-09T08:02:40;6.47;;;2.67;;
69381;SDS011;56560;50.692;12.844;2022-09-09T08:05:05;7.97;;;2.90;;
69381;SDS011;56560;50.692;12.844;2022-09-09T08:07:31;8.95;;;2.63;;
69381;SDS011;56560;50.692;12.844;2022-09-09T08:09:57;7.97;;;2.75;;
69381;SDS011;56560;50.692;12.844;2022-09-09T08:12:23;7.18;;;2.85;;
69381;SDS011;56560;50.692;12.844;2022-09-09T08:14:49;9.23;;;3.40;;
69381;SDS011;56560;50.692;12.844;2022-09-09T08:17:16;6.97;;;2.70;;
69381;SDS011;56560;50.692;12.844;2022-09-09T08:19:42;8.15;;;2.90;;
69381;SDS011;56560;50.692;12.844;2022-09-09T08:22:07;7.67;;;3.00;;
69381;SDS011;56560;50.692;12.844;2022-09-09T08:24:33;8.27;;;3.00;;
69381;SDS011;56560;50.692;12.844;2022-09-09T08:26:59;5.75;;;2.60;;
69381;SDS011;56560;50.692;12.844;2022-09-09T08:29:25;6.07;;;2.70;;
69381;SDS011;56560;50.692;12.844;2022-09-09T08:31:55;7.82;;;2.63;;
69381;SDS011;56560;50.692;12.844;2022-09-09T08:34:22;6.55;;;2.15;;
69381;SDS011;56560;50.692;12.844;2022-09-09T08:36:51;5.30;;;2.03;;
69381;SDS011;56560;50.692;12.844;2022-09-09T08:39:18;6.28;;;2.10;;
69381;SDS011;56560;50.692;12.844;2022-09-09T08:42:30;6.43;;;2.15;;
69381;SDS011;56560;50.692;12.844;2022-09-09T08:47:50;5.18;;;1.80;;
69381;SDS011;56560;50.692;12.844;2022-09-09T08:50:35;4.37;;;1.80;;
69381;SDS011;56560;50.692;12.844;2022-09-09T08:53:16;4.40;;;1.63;;
69381;SDS011;56560;50.692;12.844;2022-09-09T09:11:49;5.07;;;2.17;;
69381;SDS011;56560;50.692;12.844;2022-09-09T09:19:24;6.60;;;1.90;;
69381;SDS011;56560;50.692;12.844;2022-09-09T09:21:54;7.18;;;2.13;;
69381;SDS011;56560;50.692;12.844;2022-09-09T09:24:25;6.40;;;2.00;;
69381;SDS011;56560;50.692;12.844;2022-09-09T09:26:57;5.35;;;1.67;;
69381;SDS011;56560;50.692;12.844;2022-09-09T09:29:32;5.03;;;1.83;;
69381;SDS011;56560;50.692;12.844;2022-09-09T09:31:58;6.78;;;2.13;;
69381;SDS011;56560;50.692;12.844;2022-09-09T09:34:28;5.07;;;1.80;;
69381;SDS011;56560;50.692;12.844;2022-09-09T09:39:24;5.90;;;2.13;;
69381;SDS011;56560;50.692;12.844;2022-09-09T09:41:51;5.07;;;1.63;;
69381;SDS011;56560;50.692;12.844;2022-09-09T09:44:26;4.55;;;1.77;;
69381;SDS011;56560;50.692;12.844;2022-09-09T09:47:10;4.75;;;1.73;;
69381;SDS011;56560;50.692;12.844;2022-09-09T09:52:25;5.97;;;1.90;;
69381;SDS011;56560;50.692;12.844;2022-09-09T09:54:53;3.63;;;1.50;;
69381;SDS011;56560;50.692;12.844;2022-09-09T09:57:27;3.88;;;1.40;;
69381;SDS011;56560;50.692;12.844;2022-09-09T10:02:37;4.97;;;1.48;;
69381;SDS011;56560;50.692;12.844;2022-09-09T10:07:38;3.65;;;1.40;;
69381;SDS011;56560;50.692;12.844;2022-09-09T10:10:04;4.13;;;1.48;;
69381;SDS011;56560;50.692;12.844;2022-09-09T10:26:49;3.50;;;1.20;;
69381;SDS011;56560;50.692;12.844;2022-09-09T10:38:28;2.65;;;1.00;;
69381;SDS011;56560;50.692;12.844;2022-09-09T10:53:28;1.80;;;0.93;;
69381;SDS011;56560;50.692;12.844;2022-09-09T10:55:42;2.90;;;1.15;;
69381;SDS011;56560;50.692;12.844;2022-09-09T10:58:12;4.55;;;1.50;;
69381;SDS011;56560;50.692;12.844;2022-09-09T11:00:49;3.60;;;1.43;;
69381;SDS011;56560;50.692;12.844;2022-09-09T11:03:23;3.85;;;1.30;;
69381;SDS011;56560;50.692;12.844;2022-09-09T11:05:52;3.53;;;1.23;;
69381;SDS011;56560;50.692;12.844;2022-09-09T11:08:25;4.20;;;1.40;;
69381;SDS011;56560;50.692;12.844;2022-09-09T11:11:10;3.70;;;1.23;;
69381;SDS011;56560;50.692;12.844;2022-09-09T11:16:53;3.20;;;1.40;;
69381;SDS011;56560;50.692;12.844;2022-09-09T11:22:00;3.85;;;1.73;;
69381;SDS011;56560;50.692;12.844;2022-09-09T11:25:14;5.43;;;1.55;;
69381;SDS011;56560;50.692;12.844;2022-09-09T11:41:45;4.17;;;1.60;;
69381;SDS011;56560;50.692;12.844;2022-09-09T11:44:11;3.58;;;1.30;;
69381;SDS011;56560;50.692;12.844;2022-09-09T11:46:42;4.22;;;1.60;;
69381;SDS011;56560;50.692;12.844;2022-09-09T11:51:53;4.68;;;1.80;;
69381;SDS011;56560;50.692;12.844;2022-09-09T11:54:32;5.28;;;1.70;;
69381;SDS011;56560;50.692;12.844;2022-09-09T11:59:58;4.53;;;1.55;;
69381;SDS011;56560;50.692;12.844;2022-09-09T12:02:25;4.67;;;1.67;;
69381;SDS011;56560;50.692;12.844;2022-09-09T12:05:06;7.68;;;1.98;;
69381;SDS011;56560;50.692;12.844;2022-09-09T12:10:34;8.45;;;1.80;;
69381;SDS011;56560;50.692;12.844;2022-09-09T12:13:36;4.45;;;1.52;;
69381;SDS011;56560;50.692;12.844;2022-09-09T12:15:57;5.73;;;1.57;;
69381;SDS011;56560;50.692;12.844;2022-09-09T12:18:25;4.78;;;1.45;;
69381;SDS011;56560;50.692;12.844;2022-09-09T12:23:38;4.82;;;1.50;;
69381;SDS011;56560;50.692;12.844;2022-09-09T12:34:15;4.40;;;1.80;;
69381;SDS011;56560;50.692;12.844;2022-09-09T12:36:42;4.72;;;1.60;;
69381;SDS011;56560;50.692;12.844;2022-09-09T12:39:15;3.63;;;1.42;;
69381;SDS011;56560;50.692;12.844;2022-09-09T12:41:51;4.97;;;1.60;;
69381;SDS011;56560;50.692;12.844;2022-09-09T12:44:22;4.32;;;1.42;;
69381;SDS011;56560;50.692;12.844;2022-09-09T12:46:49;2.40;;;1.30;;
69381;SDS011;56560;50.692;12.844;2022-09-09T12:49:37;4.45;;;1.40;;
69381;SDS011;56560;50.692;12.844;2022-09-09T12:52:07;5.10;;;1.60;;
69381;SDS011;56560;50.692;12.844;2022-09-09T12:54:42;3.93;;;1.60;;
69381;SDS011;56560;50.692;12.844;2022-09-09T12:57:12;3.92;;;1.48;;
69381;SDS011;56560;50.692;12.844;2022-09-09T12:59:42;3.65;;;1.50;;
69381;SDS011;56560;50.692;12.844;2022-09-09T13:02:20;4.30;;;1.70;;
69381;SDS011;56560;50.692;12.844;2022-09-09T13:04:48;5.95;;;2.30;;
69381;SDS011;56560;50.692;12.844;2022-09-09T13:07:15;5.10;;;1.50;;
69381;SDS011;56560;50.692;12.844;2022-09-09T13:09:43;5.10;;;1.60;;
69381;SDS011;56560;50.692;12.844;2022-09-09T13:12:12;4.93;;;1.75;;
69381;SDS011;56560;50.692;12.844;2022-09-09T13:14:42;3.75;;;1.40;;
69381;SDS011;56560;50.692;12.844;2022-09-09T13:17:17;4.05;;;1.50;;
69381;SDS011;56560;50.692;12.844;2022-09-09T13:19:45;3.73;;;1.60;;
69381;SDS011;56560;50.692;12.844;2022-09-09T13:22:12;4.85;;;1.73;;
69381;SDS011;56560;50.692;12.844;2022-09-09T13:24:44;5.82;;;2.00;;
69381;SDS011;56560;50.692;12.844;2022-09-09T13:27:30;7.10;;;1.90;;
69381;SDS011;56560;50.692;12.844;2022-09-09T13:30:25;5.38;;;1.70;;
69381;SDS011;56560;50.692;12.844;2022-09-09T13:35:30;5.65;;;1.70;;
69381;SDS011;56560;50.692;12.844;2022-09-09T13:37:58;4.57;;;1.50;;
69381;SDS011;56560;50.692;12.844;2022-09-09T13:40:25;4.67;;;1.50;;
69381;SDS011;56560;50.692;12.844;2022-09-09T13:42:51;6.18;;;1.20;;
69381;SDS011;56560;50.692;12.844;2022-09-09T13:45:23;6.10;;;1.30;;
69381;SDS011;56560;50.692;12.844;2022-09-09T13:47:51;3.03;;;1.20;;
69381;SDS011;56560;50.692;12.844;2022-09-09T13:52:52;3.67;;;1.20;;
69381;SDS011;56560;50.692;12.844;2022-09-09T13:55:19;3.97;;;1.20;;
69381;SDS011;56560;50.692;12.844;2022-09-09T13:57:51;4.38;;;1.40;;
69381;SDS011;56560;50.692;12.844;2022-09-09T14:00:17;4.43;;;1.60;;
69381;SDS011;56560;50.692;12.844;2022-09-09T14:02:43;4.10;;;1.50;;
69381;SDS011;56560;50.692;12.844;2022-09-09T14:05:09;3.80;;;1.40;;
69381;SDS011;56560;50.692;12.844;2022-09-09T14:07:36;6.60;;;1.50;;
69381;SDS011;56560;50.692;12.844;2022-09-09T14:10:04;3.60;;;1.35;;
69381;SDS011;56560;50.692;12.844;2022-09-09T14:12:31;6.22;;;1.98;;
69381;SDS011;56560;50.692;12.844;2022-09-09T14:14:56;6.37;;;2.00;;
69381;SDS011;56560;50.692;12.844;2022-09-09T14:17:22;7.47;;;2.80;;
69381;SDS011;56560;50.692;12.844;2022-09-09T14:19:47;6.50;;;1.93;;
69381;SDS011;56560;50.692;12.844;2022-09-09T14:22:13;5.82;;;1.80;;
69381;SDS011;56560;50.692;12.844;2022-09-09T14:24:39;5.35;;;2.10;;
69381;SDS011;56560;50.692;12.844;2022-09-09T14:27:05;6.40;;;2.47;;
69381;SDS011;56560;50.692;12.844;2022-09-09T14:29:31;6.35;;;2.00;;
69381;SDS011;56560;50.692;12.844;2022-09-09T14:31:58;4.00;;;1.65;;
69381;SDS011;56560;50.692;12.844;2022-09-09T14:34:25;3.78;;;1.50;;
69381;SDS011;56560;50.692;12.844;2022-09-09T14:36:51;3.53;;;1.40;;
69381;SDS011;56560;50.692;12.844;2022-09-09T14:39:16;3.33;;;1.40;;
69381;SDS011;56560;50.692;12.844;2022-09-09T14:41:42;4.03;;;1.50;;
69381;SDS011;56560;50.692;12.844;2022-09-09T14:44:08;4.43;;;2.00;;
69381;SDS011;56560;50.692;12.844;2022-09-09T14:46:33;5.50;;;2.00;;
69381;SDS011;56560;50.692;12.844;2022-09-09T14:48:59;3.57;;;1.40;;
69381;SDS011;56560;50.692;12.844;2022-09-09T14:51:25;5.70;;;2.10;;
69381;SDS011;56560;50.692;12.844;2022-09-09T14:53:55;7.43;;;2.08;;
69381;SDS011;56560;50.692;12.844;2022-09-09T14:56:23;6.28;;;2.50;;
69381;SDS011;56560;50.692;12.844;2022-09-09T14:58:52;4.17;;;1.63;;
69381;SDS011;56560;50.692;12.844;2022-09-09T15:01:20;3.42;;;1.30;;
69381;SDS011;56560;50.692;12.844;2022-09-09T15:03:54;4.68;;;1.60;;
69381;SDS011;56560;50.692;12.844;2022-09-09T15:06:27;4.85;;;1.30;;
69381;SDS011;56560;50.692;12.844;2022-09-09T15:08:55;2.72;;;1.10;;
69381;SDS011;56560;50.692;12.844;2022-09-09T15:11:23;3.40;;;1.20;;
69381;SDS011;56560;50.692;12.844;2022-09-09T15:13:51;4.40;;;1.45;;
69381;SDS011;56560;50.692;12.844;2022-09-09T15:16:21;3.28;;;1.40;;
69381;SDS011;56560;50.692;12.844;2022-09-09T15:18:53;3.60;;;1.40;;
69381;SDS011;56560;50.692;12.844;2022-09-09T15:21:21;5.25;;;2.00;;
69381;SDS011;56560;50.692;12.844;2022-09-09T15:23:48;7.43;;;2.60;;
69381;SDS011;56560;50.692;12.844;2022-09-09T15:26:15;8.45;;;3.33;;
69381;SDS011;56560;50.692;12.844;2022-09-09T15:28:41;5.40;;;2.30;;
69381;SDS011;56560;50.692;12.844;2022-09-09T15:31:09;7.63;;;2.65;;
69381;SDS011;56560;50.692;12.844;2022-09-09T15:33:39;5.30;;;2.10;;
69381;SDS011;56560;50.692;12.844;2022-09-09T15:36:15;7.95;;;3.00;;
69381;SDS011;56560;50.692;12.844;2022-09-09T15:38:42;5.80;;;1.95;;
69381;SDS011;56560;50.692;12.844;2022-09-09T15:41:09;6.32;;;2.35;;
69381;SDS011;56560;50.692;12.844;2022-09-09T15:43:35;6.50;;;2.40;;
69381;SDS011;56560;50.692;12.844;2022-09-09T15:46:05;8.63;;;3.30;;
69381;SDS011;56560;50.692;12.844;2022-09-09T15:48:43;6.95;;;2.50;;
69381;SDS011;56560;50.692;12.844;2022-09-09T15:51:09;5.97;;;2.15;;
69381;SDS011;56560;50.692;12.844;2022-09-09T15:53:36;7.63;;;2.30;;
69381;SDS011;56560;50.692;12.844;2022-09-09T15:56:04;7.38;;;2.35;;
69381;SDS011;56560;50.692;12.844;2022-09-09T15:58:31;5.47;;;2.00;;
69381;SDS011;56560;50.692;12.844;2022-09-09T16:01:04;5.43;;;2.00;;
69381;SDS011;56560;50.692;12.844;2022-09-09T16:03:37;7.00;;;2.20;;
69381;SDS011;56560;50.692;12.844;2022-09-09T16:06:05;5.43;;;2.10;;
69381;SDS011;56560;50.692;12.844;2022-09-09T16:08:38;6.07;;;2.40;;
69381;SDS011;56560;50.692;12.844;2022-09-09T16:11:13;6.40;;;2.22;;
69381;SDS011;56560;50.692;12.844;2022-09-09T16:13:43;5.75;;;2.10;;
69381;SDS011;56560;50.692;12.844;2022-09-09T16:16:12;10.30;;;4.45;;
69381;SDS011;56560;50.692;12.844;2022-09-09T16:21:29;10.00;;;4.67;;
69381;SDS011;56560;50.692;12.844;2022-09-09T16:23:58;10.43;;;3.83;;
69381;SDS011;56560;50.692;12.844;2022-09-09T16:26:25;8.38;;;2.50;;
69381;SDS011;56560;50.692;12.844;2022-09-09T16:28:52;8.63;;;3.53;;
69381;SDS011;56560;50.692;12.844;2022-09-09T16:31:20;14.70;;;5.38;;
69381;SDS011;56560;50.692;12.844;2022-09-09T16:33:47;7.35;;;2.60;;
69381;SDS011;56560;50.692;12.844;2022-09-09T16:36:16;11.52;;;4.20;;
69381;SDS011;56560;50.692;12.844;2022-09-09T16:38:43;7.40;;;2.60;;
69381;SDS011;56560;50.692;12.844;2022-09-09T16:41:10;6.72;;;2.30;;
69381;SDS011;56560;50.692;12.844;2022-09-09T16:43:37;5.95;;;2.20;;
69381;SDS011;56560;50.692;12.844;2022-09-09T16:46:09;8.48;;;2.55;;
69381;SDS011;56560;50.692;12.844;2022-09-09T16:48:41;3.88;;;1.48;;
69381;SDS011;56560;50.692;12.844;2022-09-09T16:51:12;3.10;;;1.42;;
69381;SDS011;56560;50.692;12.844;2022-09-09T16:53:43;3.00;;;1.35;;
69381;SDS011;56560;50.692;12.844;2022-09-09T16:56:10;5.13;;;1.98;;
69381;SDS011;56560;50.692;12.844;2022-09-09T16:58:38;6.13;;;2.40;;
69381;SDS011;56560;50.692;12.844;2022-09-09T17:01:04;5.53;;;2.10;;
69381;SDS011;56560;50.692;12.844;2022-09-09T17:03:30;5.35;;;1.90;;
69381;SDS011;56560;50.692;12.844;2022-09-09T17:05:56;6.33;;;1.97;;
69381;SDS011;56560;50.692;12.844;2022-09-09T17:08:25;6.60;;;2.10;;
69381;SDS011;56560;50.692;12.844;2022-09-09T17:10:51;4.78;;;1.90;;
69381;SDS011;56560;50.692;12.844;2022-09-09T17:13:17;5.90;;;2.00;;
69381;SDS011;56560;50.692;12.844;2022-09-09T17:15:44;5.00;;;1.90;;
69381;SDS011;56560;50.692;12.844;2022-09-09T17:18:10;6.20;;;1.70;;
69381;SDS011;56560;50.692;12.844;2022-09-09T17:20:38;8.02;;;2.90;;
69381;SDS011;56560;50.692;12.844;2022-09-09T17:23:05;7.20;;;2.65;;
69381;SDS011;56560;50.692;12.844;2022-09-09T17:25:32;6.13;;;2.50;;
69381;SDS011;56560;50.692;12.844;2022-09-09T17:27:58;8.02;;;2.88;;
69381;SDS011;56560;50.692;12.844;2022-09-09T17:30:25;6.63;;;2.50;;
69381;SDS011;56560;50.692;12.844;2022-09-09T17:32:52;5.72;;;2.30;;